Карточка аэропорта UWPS

Внимание!
Информация на этой странице в стадии наполнения.
Если вы не увидели какой-то информации, или заметили неточность - пожалуйста сообщите нам!
Спасибо!
Команда RU-STAFF
Название аэропортаСаранск
Название аэропорта (англ.)Saransk
Превышение709 ft. (216.1 m.)
Координаты540731°0', 451246°0'
Высота перехода3000
Эшелон переходаQNH>=1013hPa:FL50; QNH<1013hPa=>977hPa:FL60; QNH<977hPa:FL70
Коды ответчика1000
Зона ОрВДСамара РПИ (UWWW)
Данные METARUWPS 300600Z 00000MPS 0400 0250SW R20/1300D FG VV001 12/12 Q1020 R20/150060 NOSIG RMK QBB050 QFE747
Проноз погоды (TAF)
NOTAMshow/hide NOTAM
AWOS   TABLE

Информация о ВПП

ВПП Длина ВПП (м.) Покрытие Курс ВПП Частота ILS
022800Асфальтобетон21 
202800Асфальтобетон201110.35

Диспетчерские позиции


Сценарии

Сценарий
Нет результатов.


Спутниковое изображение